Time;durP1;ratioP1;P1;durP2;ratioP2;P2;SDS_P1;SDS_P2;PMS_P1;PMS_P2;Temp;Humidity;BMP_temperature;BMP_pressure;BME280_temperature;BME280_humidity;BME280_pressure;Samples;Min_cycle;Max_cycle;Signal;HPM_P1;HPM_P2
2021/05/27 00:01:07;;;;;;;5.57;4.03;;;12.80;99.90;;;;;;6251468;28;20940;-58
2021/05/27 00:04:10;;;;;;;4.17;2.43;;;12.80;99.90;;;;;;6251707;28;20467;-57
2021/05/27 00:07:13;;;;;;;2.93;2.50;;;12.70;99.90;;;;;;6251926;28;20474;-58
2021/05/27 00:10:18;;;;;;;5.53;2.70;;;12.70;99.90;;;;;;6251408;28;20467;-58
2021/05/27 00:13:21;;;;;;;4.77;3.00;;;12.60;99.90;;;;;;6250861;28;20976;-58
2021/05/27 00:16:24;;;;;;;4.40;2.90;;;12.60;99.90;;;;;;6249379;28;20478;-58
2021/05/27 00:19:27;;;;;;;3.97;2.80;;;12.50;99.90;;;;;;6249879;28;20802;-58
2021/05/27 00:22:29;;;;;;;5.53;2.97;;;12.50;99.90;;;;;;6251185;28;20796;-58
2021/05/27 00:25:32;;;;;;;6.60;2.80;;;12.50;99.90;;;;;;6250164;28;20485;-59
2021/05/27 00:28:37;;;;;;;4.23;2.37;;;12.40;99.90;;;;;;6251372;28;20462;-57
2021/05/27 00:31:39;;;;;;;3.83;2.47;;;12.30;99.90;;;;;;6240229;28;20474;-57
2021/05/27 00:34:42;;;;;;;5.67;2.37;;;12.30;99.90;;;;;;6237161;28;20479;-56
2021/05/27 00:37:45;;;;;;;3.10;2.90;;;12.40;99.90;;;;;;6232973;28;20487;-57
2021/05/27 00:40:48;;;;;;;2.50;2.30;;;12.40;99.90;;;;;;6238745;28;20479;-57
2021/05/27 00:43:51;;;;;;;3.47;2.03;;;12.40;99.90;;;;;;6241281;28;20479;-57
2021/05/27 00:46:56;;;;;;;2.40;2.20;;;12.40;99.90;;;;;;6238575;28;20467;-61
2021/05/27 00:49:58;;;;;;;2.20;2.03;;;12.30;99.90;;;;;;6239975;28;20804;-61
2021/05/27 00:53:01;;;;;;;3.63;2.50;;;12.40;99.90;;;;;;6234537;28;20472;-61
2021/05/27 00:56:04;;;;;;;3.53;2.90;;;12.40;99.90;;;;;;6236386;28;20476;-64
2021/05/27 00:59:08;;;;;;;5.63;2.53;;;12.40;99.90;;;;;;6226557;28;20487;-62
2021/05/27 01:02:11;;;;;;;3.03;2.73;;;12.40;99.90;;;;;;6229935;28;20494;-56
2021/05/27 01:05:16;;;;;;;2.50;2.30;;;12.30;99.90;;;;;;6237784;28;20991;-56
2021/05/27 01:08:19;;;;;;;3.17;2.30;;;12.30;99.90;;;;;;6236306;28;20478;-57
2021/05/27 01:11:22;;;;;;;2.43;2.23;;;12.30;99.90;;;;;;6225794;28;20463;-56
2021/05/27 01:17:46;;;;;;;4.10;2.53;;;12.30;99.90;;;;;;6225711;28;20973;-57
2021/05/27 01:20:51;;;;;;;3.03;2.77;;;12.30;99.90;;;;;;6225848;28;20525;-56
2021/05/27 01:23:54;;;;;;;3.33;2.67;;;12.30;99.90;;;;;;6225844;28;20487;-56
2021/05/27 01:26:57;;;;;;;2.93;2.60;;;12.30;99.90;;;;;;6225823;28;20764;-56
2021/05/27 01:30:00;;;;;;;3.17;2.87;;;12.30;99.90;;;;;;6225237;28;20931;-56
2021/05/27 01:33:03;;;;;;;2.70;2.40;;;12.30;99.90;;;;;;6225815;28;20487;-57
2021/05/27 01:36:06;;;;;;;3.23;2.40;;;12.30;99.90;;;;;;6227147;28;20475;-56
2021/05/27 01:39:10;;;;;;;7.70;2.50;;;12.30;99.90;;;;;;6225922;28;20485;-64
2021/05/27 01:42:13;;;;;;;5.10;2.77;;;12.30;99.90;;;;;;6225103;28;20833;-65
2021/05/27 01:45:17;;;;;;;7.37;2.80;;;12.30;99.90;;;;;;6216114;28;20969;-60
2021/05/27 01:48:20;;;;;;;3.40;2.83;;;12.20;99.90;;;;;;6225093;28;20814;-60
2021/05/27 01:51:23;;;;;;;3.77;3.40;;;12.20;99.90;;;;;;6225165;28;20988;-65
2021/05/27 01:54:27;;;;;;;5.50;3.10;;;12.20;99.90;;;;;;6225344;28;20483;-65
2021/05/27 01:57:29;;;;;;;2.70;2.40;;;12.20;99.90;;;;;;6225075;28;20488;-64
2021/05/27 02:00:32;;;;;;;5.10;2.90;;;12.20;99.90;;;;;;6225252;28;20483;-64
2021/05/27 02:03:35;;;;;;;5.40;3.30;;;12.20;99.90;;;;;;6224741;28;20495;-65
2021/05/27 02:06:38;;;;;;;5.00;3.17;;;12.20;99.90;;;;;;6225107;28;20471;-64
2021/05/27 02:09:42;;;;;;;2.50;2.30;;;12.10;99.90;;;;;;6224290;28;20475;-65
2021/05/27 02:12:45;;;;;;;3.77;2.60;;;12.10;99.90;;;;;;6231409;28;20463;-65
2021/05/27 02:15:47;;;;;;;2.80;2.60;;;12.10;99.90;;;;;;6235626;28;20483;-64
2021/05/27 02:18:50;;;;;;;5.97;2.70;;;12.10;99.90;;;;;;6237577;28;20444;-65
2021/05/27 02:21:53;;;;;;;2.70;2.50;;;12.00;99.90;;;;;;6237556;28;20475;-64
2021/05/27 02:24:57;;;;;;;2.83;2.63;;;12.00;99.90;;;;;;6230332;28;20467;-57
2021/05/27 02:27:59;;;;;;;3.13;2.83;;;12.00;99.90;;;;;;6225080;28;20786;-64
2021/05/27 02:31:02;;;;;;;3.23;2.50;;;11.90;99.90;;;;;;6224566;28;20749;-56
2021/05/27 02:34:05;;;;;;;3.00;2.63;;;11.80;99.90;;;;;;6224450;28;20494;-56
2021/05/27 02:37:07;;;;;;;2.63;2.43;;;11.80;99.90;;;;;;6223888;28;20913;-56
2021/05/27 02:40:12;;;;;;;2.60;2.37;;;11.80;99.90;;;;;;6224410;28;20865;-56
2021/05/27 02:43:15;;;;;;;2.37;2.13;;;11.80;99.90;;;;;;6224801;28;20468;-64
2021/05/27 02:46:18;;;;;;;3.87;2.30;;;11.80;99.90;;;;;;6220307;28;20478;-65
2021/05/27 02:49:25;;;;;;;2.20;2.10;;;11.70;99.90;;;;;;6224411;28;20470;-65
2021/05/27 02:52:28;;;;;;;4.67;2.60;;;11.70;99.90;;;;;;6224955;28;20479;-65
2021/05/27 02:55:31;;;;;;;3.40;2.30;;;11.70;99.90;;;;;;6224471;28;20494;-64
2021/05/27 02:58:34;;;;;;;3.00;2.67;;;11.70;99.90;;;;;;6224211;28;20555;-65
2021/05/27 03:01:37;;;;;;;6.53;2.37;;;11.70;99.90;;;;;;6224381;28;20482;-61
2021/05/27 03:04:39;;;;;;;2.57;2.37;;;11.60;99.90;;;;;;6224469;28;20467;-60
2021/05/27 03:07:42;;;;;;;2.40;2.20;;;11.60;99.90;;;;;;6224742;28;20813;-60
2021/05/27 03:10:46;;;;;;;3.70;2.67;;;11.60;99.90;;;;;;6224186;28;20803;-60
2021/05/27 03:13:48;;;;;;;2.37;2.10;;;11.60;99.90;;;;;;6224340;28;20954;-60
2021/05/27 03:16:51;;;;;;;3.00;2.50;;;11.60;99.90;;;;;;6224103;28;20490;-60
2021/05/27 03:19:54;;;;;;;3.20;2.60;;;11.60;99.90;;;;;;6224078;28;20475;-60
2021/05/27 03:22:56;;;;;;;2.60;2.40;;;11.60;99.90;;;;;;6227162;28;20814;-57
2021/05/27 03:26:00;;;;;;;4.73;2.67;;;11.60;99.90;;;;;;6228818;28;20482;-57
2021/05/27 03:29:04;;;;;;;4.97;2.57;;;11.60;99.90;;;;;;6228266;28;20471;-57
2021/05/27 03:32:07;;;;;;;3.73;2.73;;;11.70;99.90;;;;;;6228011;28;20483;-66
2021/05/27 03:35:11;;;;;;;5.00;2.90;;;11.70;99.90;;;;;;6228054;28;20486;-60
2021/05/27 03:38:13;;;;;;;3.97;3.47;;;11.70;99.90;;;;;;6228293;28;20821;-60
2021/05/27 03:41:17;;;;;;;3.00;2.80;;;11.80;99.90;;;;;;6227691;28;20487;-57
2021/05/27 03:44:20;;;;;;;2.80;2.60;;;11.80;99.90;;;;;;6228099;28;20468;-60
2021/05/27 03:47:23;;;;;;;5.57;3.20;;;11.80;99.90;;;;;;6227907;28;20472;-60
2021/05/27 03:50:27;;;;;;;5.73;2.73;;;11.90;99.90;;;;;;6227674;28;20472;-56
2021/05/27 03:53:30;;;;;;;2.63;2.27;;;11.90;99.90;;;;;;6219034;28;20472;-57
2021/05/27 03:56:34;;;;;;;2.00;1.80;;;11.90;99.90;;;;;;6227754;28;20487;-60
2021/05/27 04:02:59;;;;;;;2.93;2.13;;;12.00;99.90;;;;;;6227610;28;20495;-60
2021/05/27 04:09:27;;;;;;;2.63;2.43;;;12.00;99.90;;;;;;6190600;28;20472;-61
2021/05/27 04:12:46;;;;;;;3.27;2.57;;;11.90;99.90;;;;;;6227360;28;20478;-60
2021/05/27 04:15:49;;;;;;;3.73;2.60;;;12.00;99.90;;;;;;6227498;28;20480;-57
2021/05/27 04:18:52;;;;;;;2.53;2.17;;;12.00;99.90;;;;;;6227118;28;20455;-57
2021/05/27 04:21:55;;;;;;;3.23;2.27;;;12.10;99.90;;;;;;6227386;28;20491;-57
2021/05/27 04:24:57;;;;;;;2.73;2.50;;;12.20;99.90;;;;;;6227207;28;20777;-65
2021/05/27 04:28:01;;;;;;;3.70;2.27;;;12.30;99.90;;;;;;6226811;28;20796;-60
2021/05/27 04:31:09;;;;;;;3.13;2.80;;;12.40;99.90;;;;;;6226985;28;20772;-65
2021/05/27 04:34:11;;;;;;;2.60;2.17;;;12.50;99.90;;;;;;6226243;28;20476;-60
2021/05/27 04:37:14;;;;;;;2.70;2.50;;;12.70;99.90;;;;;;6227263;28;20482;-60
2021/05/27 04:40:17;;;;;;;5.40;2.57;;;12.80;99.90;;;;;;6226753;28;20467;-60
2021/05/27 04:43:21;;;;;;;5.30;3.07;;;12.90;99.90;;;;;;6226522;28;20463;-65
2021/05/27 04:46:25;;;;;;;4.07;2.63;;;13.10;99.90;;;;;;6226666;28;20476;-66
2021/05/27 04:49:28;;;;;;;3.63;2.33;;;13.30;99.90;;;;;;6226694;28;20472;-57
2021/05/27 04:52:31;;;;;;;3.70;2.60;;;13.50;99.90;;;;;;6226371;28;20471;-61
2021/05/27 04:55:34;;;;;;;5.00;2.57;;;13.60;99.90;;;;;;6226562;28;20494;-66
2021/05/27 04:58:38;;;;;;;3.80;2.87;;;13.80;99.90;;;;;;6225974;28;20557;-65
2021/05/27 05:01:41;;;;;;;3.40;2.67;;;14.00;99.90;;;;;;6226249;28;20825;-57
2021/05/27 05:04:44;;;;;;;4.83;3.03;;;14.20;99.90;;;;;;6226441;28;20487;-57
2021/05/27 05:07:48;;;;;;;2.97;2.67;;;14.50;99.90;;;;;;6226121;28;20809;-61
2021/05/27 05:10:51;;;;;;;4.73;3.07;;;14.80;99.90;;;;;;6225954;28;20487;-61
2021/05/27 05:13:55;;;;;;;5.23;3.00;;;15.00;99.60;;;;;;6225419;28;20482;-65
2021/05/27 05:16:58;;;;;;;3.53;3.20;;;15.20;99.40;;;;;;6226133;28;20474;-65
2021/05/27 05:20:00;;;;;;;7.93;3.30;;;15.40;98.90;;;;;;6225642;28;20472;-62
2021/05/27 05:23:04;;;;;;;4.70;2.53;;;15.70;98.30;;;;;;6225728;28;20546;-61
2021/05/27 05:26:07;;;;;;;10.43;3.27;;;15.90;97.60;;;;;;6225819;28;20483;-61
2021/05/27 05:29:10;;;;;;;6.40;2.30;;;15.90;97.60;;;;;;6225581;28;20782;-61
2021/05/27 05:32:13;;;;;;;5.70;2.90;;;15.90;97.40;;;;;;6225635;28;20472;-61
2021/05/27 05:35:18;;;;;;;4.20;3.23;;;15.90;97.10;;;;;;6225627;28;20482;-61
2021/05/27 05:38:20;;;;;;;3.27;2.50;;;16.00;97.00;;;;;;6225577;28;20961;-60
2021/05/27 05:41:23;;;;;;;3.70;3.40;;;16.00;96.90;;;;;;6225314;28;20476;-61
2021/05/27 05:44:27;;;;;;;6.60;3.40;;;16.00;96.70;;;;;;6224523;28;20479;-60
2021/05/27 05:47:29;;;;;;;7.03;3.20;;;16.10;96.70;;;;;;6225315;28;20478;-60
2021/05/27 05:50:48;;;;;;;2.60;2.30;;;16.20;96.40;;;;;;6225131;28;20467;-60
2021/05/27 05:53:51;;;;;;;3.53;2.50;;;16.20;96.30;;;;;;6225123;28;20495;-56
2021/05/27 05:56:53;;;;;;;6.93;3.83;;;16.30;96.10;;;;;;6224826;28;20991;-56
2021/05/27 05:59:57;;;;;;;8.53;2.97;;;16.50;95.80;;;;;;6224846;28;20472;-65
2021/05/27 06:03:00;;;;;;;5.40;2.90;;;16.60;95.40;;;;;;6220771;28;20494;-65
2021/05/27 06:06:03;;;;;;;3.93;2.93;;;16.80;94.90;;;;;;6225051;28;20831;-65
2021/05/27 06:09:06;;;;;;;3.93;3.00;;;16.90;94.50;;;;;;6236739;28;20463;-66
2021/05/27 06:12:09;;;;;;;4.70;2.60;;;17.40;94.80;;;;;;6227560;28;20487;-65
2021/05/27 06:15:19;;;;;;;8.00;3.40;;;18.10;93.70;;;;;;6224652;28;21036;-66
2021/05/27 06:18:22;;;;;;;6.33;3.40;;;18.70;92.10;;;;;;6224859;28;20487;-65
2021/05/27 06:21:25;;;;;;;4.30;2.37;;;19.20;90.80;;;;;;6224893;28;20476;-66
2021/05/27 06:24:27;;;;;;;4.33;2.73;;;19.70;89.90;;;;;;6224457;28;20476;-65
2021/05/27 06:27:30;;;;;;;4.00;2.93;;;20.50;85.90;;;;;;6224676;28;20225;-61
2021/05/27 06:30:34;;;;;;;4.10;3.07;;;21.50;81.10;;;;;;6224615;28;20233;-57
2021/05/27 06:33:37;;;;;;;5.27;2.37;;;22.10;76.20;;;;;;6224513;28;20229;-57
2021/05/27 06:36:40;;;;;;;3.80;2.43;;;22.80;71.10;;;;;;6224602;28;20236;-65
2021/05/27 06:39:42;;;;;;;2.97;1.67;;;23.20;66.80;;;;;;6224342;28;20225;-66
2021/05/27 06:42:46;;;;;;;1.83;1.70;;;23.70;63.10;;;;;;6224827;28;20259;-66
2021/05/27 06:45:49;;;;;;;3.13;2.23;;;24.30;60.50;;;;;;6224159;28;20555;-66
2021/05/27 06:48:52;;;;;;;6.47;2.27;;;24.60;59.00;;;;;;6224340;28;20233;-58
2021/05/27 06:51:56;;;;;;;3.93;2.43;;;24.80;57.60;;;;;;6224161;28;20666;-58
2021/05/27 06:54:59;;;;;;;3.40;2.47;;;24.40;56.50;;;;;;6225339;28;20239;-57
2021/05/27 06:58:02;;;;;;;3.33;2.00;;;24.30;57.40;;;;;;6228914;28;20233;-57
2021/05/27 07:01:05;;;;;;;6.03;2.43;;;24.90;56.20;;;;;;6229226;28;20555;-61
2021/05/27 07:04:08;;;;;;;2.50;1.60;;;25.20;54.50;;;;;;6220293;28;20243;-65
2021/05/27 07:07:11;;;;;;;4.10;1.50;;;26.00;52.80;;;;;;6229249;28;20259;-65
2021/05/27 07:10:15;;;;;;;4.60;1.60;;;26.20;51.00;;;;;;6229385;28;20233;-65
2021/05/27 07:13:18;;;;;;;3.80;1.93;;;24.90;52.30;;;;;;6228694;28;20255;-65
2021/05/27 07:16:22;;;;;;;1.73;1.27;;;24.10;53.80;;;;;;6229111;28;20233;-66
2021/05/27 07:19:24;;;;;;;1.90;1.70;;;23.50;55.10;;;;;;6228715;28;20225;-66
2021/05/27 07:22:27;;;;;;;2.37;1.47;;;23.10;56.10;;;;;;6228843;28;20232;-62
2021/05/27 07:25:30;;;;;;;5.33;2.10;;;22.60;56.70;;;;;;6228325;28;20228;-61
2021/05/27 07:28:33;;;;;;;2.73;2.10;;;22.50;57.00;;;;;;6228760;28;20255;-58
2021/05/27 07:31:37;;;;;;;4.23;1.97;;;22.70;56.70;;;;;;6228188;28;20749;-57
2021/05/27 07:34:39;;;;;;;2.53;2.10;;;22.90;56.30;;;;;;6228413;28;20232;-58
2021/05/27 07:37:42;;;;;;;2.30;1.60;;;23.00;56.30;;;;;;6228108;28;20225;-58
2021/05/27 07:40:46;;;;;;;2.17;1.60;;;22.90;56.80;;;;;;6228490;28;20694;-58
2021/05/27 07:43:50;;;;;;;1.93;1.70;;;23.10;56.40;;;;;;6227599;28;20229;-58
2021/05/27 07:46:53;;;;;;;3.90;1.83;;;23.40;55.90;;;;;;6228076;28;20659;-58
2021/05/27 07:49:56;;;;;;;1.37;1.27;;;23.50;55.30;;;;;;6228243;28;20239;-57
2021/05/27 07:52:59;;;;;;;3.27;1.80;;;23.50;54.20;;;;;;6230211;28;20224;-58
2021/05/27 07:56:02;;;;;;;2.20;1.60;;;23.60;54.40;;;;;;6245838;28;20238;-58
2021/05/27 07:59:05;;;;;;;1.40;1.30;;;23.60;54.70;;;;;;6239043;28;20239;-57
2021/05/27 08:02:08;;;;;;;2.60;1.47;;;23.60;55.10;;;;;;6239083;28;20235;-58
2021/05/27 08:05:13;;;;;;;1.73;1.63;;;23.60;54.70;;;;;;6238975;28;20253;-66
2021/05/27 08:08:16;;;;;;;1.87;1.50;;;23.80;53.80;;;;;;6238451;28;20229;-70
2021/05/27 08:11:18;;;;;;;2.47;1.53;;;24.10;53.70;;;;;;6242827;28;20685;-65
2021/05/27 08:14:21;;;;;;;1.60;1.40;;;24.40;53.30;;;;;;6249453;28;20239;-66
2021/05/27 08:17:25;;;;;;;2.63;1.60;;;24.70;52.80;;;;;;6252443;28;20689;-65
2021/05/27 08:20:28;;;;;;;3.83;1.47;;;24.80;51.90;;;;;;6251954;28;20224;-66
2021/05/27 08:23:31;;;;;;;2.37;1.60;;;24.90;52.30;;;;;;6242118;28;20343;-60
2021/05/27 08:26:34;;;;;;;2.10;1.30;;;25.00;52.30;;;;;;6243119;28;20230;-59
2021/05/27 08:29:37;;;;;;;3.60;1.63;;;25.10;52.40;;;;;;6251198;28;20228;-60
2021/05/27 08:32:41;;;;;;;3.20;1.63;;;25.30;51.50;;;;;;6236878;28;20217;-60
2021/05/27 08:35:44;;;;;;;2.73;1.50;;;25.50;51.40;;;;;;6226269;28;20695;-60
2021/05/27 08:38:47;;;;;;;2.27;1.70;;;25.70;51.70;;;;;;6226902;28;20708;-60
2021/05/27 08:41:49;;;;;;;1.73;1.10;;;26.00;51.00;;;;;;6226454;28;20241;-60
2021/05/27 08:44:55;;;;;;;4.50;1.50;;;26.00;49.70;;;;;;6246838;28;20232;-60
2021/05/27 08:47:59;;;;;;;1.80;1.20;;;25.90;50.30;;;;;;6250855;28;20250;-59
2021/05/27 08:51:02;;;;;;;1.57;1.07;;;25.80;49.50;;;;;;6250748;28;20239;-59
2021/05/27 08:54:05;;;;;;;1.40;1.30;;;25.50;49.60;;;;;;6251206;28;20236;-60
2021/05/27 08:57:08;;;;;;;2.80;1.63;;;25.10;49.90;;;;;;6250427;28;20267;-59
2021/05/27 09:00:12;;;;;;;2.47;1.63;;;24.80;50.80;;;;;;6250467;28;20243;-60
2021/05/27 09:03:17;;;;;;;3.93;1.70;;;24.60;51.20;;;;;;6250270;28;20399;-60
2021/05/27 09:06:21;;;;;;;1.97;1.27;;;24.50;50.70;;;;;;6250323;28;20232;-59
2021/05/27 09:09:23;;;;;;;2.83;1.70;;;24.40;51.20;;;;;;6239427;28;20220;-58
2021/05/27 09:12:32;;;;;;;2.23;1.37;;;24.00;51.70;;;;;;6238592;28;20232;-58
2021/05/27 09:15:34;;;;;;;2.10;1.57;;;23.90;52.70;;;;;;6236575;28;20229;-58
2021/05/27 09:18:39;;;;;;;2.03;1.10;;;23.80;52.20;;;;;;6241239;28;20225;-58
2021/05/27 09:21:43;;;;;;;1.50;1.27;;;23.40;53.00;;;;;;6237580;28;20227;-58
2021/05/27 09:24:46;;;;;;;2.07;1.60;;;23.00;53.60;;;;;;6231852;28;20228;-58
2021/05/27 09:27:48;;;;;;;3.97;1.70;;;22.90;54.00;;;;;;6236543;28;20224;-58
2021/05/27 09:30:54;;;;;;;3.60;1.60;;;22.90;54.10;;;;;;6235220;28;20216;-58
2021/05/27 09:34:02;;;;;;;1.93;1.47;;;23.00;54.20;;;;;;6235347;28;20236;-58
2021/05/27 09:37:05;;;;;;;1.97;1.30;;;23.20;53.80;;;;;;6235722;28;20641;-58
2021/05/27 09:40:08;;;;;;;2.03;1.50;;;23.40;54.10;;;;;;6244558;28;20216;-59
2021/05/27 09:43:20;;;;;;;2.67;2.13;;;23.70;53.10;;;;;;6248993;28;20224;-58
2021/05/27 09:46:24;;;;;;;3.63;1.53;;;24.10;52.90;;;;;;6249519;28;20228;-59
2021/05/27 09:49:28;;;;;;;3.33;3.03;;;24.40;52.10;;;;;;6248919;28;20239;-58
2021/05/27 09:52:38;;;;;;;3.20;1.50;;;24.60;52.00;;;;;;6249679;28;20282;-58
2021/05/27 09:55:41;;;;;;;5.30;1.43;;;25.00;52.30;;;;;;6248864;28;20240;-58
2021/05/27 09:58:52;;;;;;;2.57;1.70;;;25.30;50.90;;;;;;6249389;28;20220;-59
2021/05/27 10:02:13;;;;;;;2.73;1.80;;;25.40;51.10;;;;;;6249048;28;20278;-58
2021/05/27 10:05:17;;;;;;;2.90;2.00;;;25.70;50.30;;;;;;6249554;28;20311;-58
2021/05/27 10:08:20;;;;;;;1.70;1.57;;;25.90;49.90;;;;;;6249036;28;20241;-58
2021/05/27 10:11:42;;;;;;;1.97;1.50;;;26.30;49.40;;;;;;6249409;28;20239;-58
2021/05/27 10:14:45;;;;;;;2.70;2.03;;;26.60;49.20;;;;;;6247986;28;20539;-59
2021/05/27 10:17:50;;;;;;;3.00;2.07;;;26.40;49.50;;;;;;6234613;28;20247;-60
2021/05/27 10:20:53;;;;;;;3.50;1.90;;;26.50;49.30;;;;;;6238185;28;20216;-60
2021/05/27 10:23:58;;;;;;;1.73;1.60;;;27.00;48.30;;;;;;6248305;28;20239;-59
2021/05/27 10:27:01;;;;;;;1.97;1.77;;;27.30;46.90;;;;;;6239679;28;20232;-59
2021/05/27 10:30:06;;;;;;;2.83;1.90;;;27.60;46.20;;;;;;6223840;28;21045;-59
2021/05/27 10:33:16;;;;;;;2.90;2.00;;;27.40;46.00;;;;;;6228540;28;20220;-59
2021/05/27 10:36:20;;;;;;;2.93;1.73;;;26.70;47.50;;;;;;6228864;28;20232;-59
2021/05/27 10:39:32;;;;;;;2.73;2.30;;;26.20;47.70;;;;;;6228549;28;20232;-63
2021/05/27 10:43:08;;;;;;;4.10;1.93;;;25.70;48.50;;;;;;6228833;28;20808;-59
2021/05/27 10:46:11;;;;;;;2.57;2.20;;;25.50;49.40;;;;;;6229147;28;20554;-59
2021/05/27 10:49:49;;;;;;;2.60;2.20;;;25.90;49.60;;;;;;6243459;28;20231;-59
2021/05/27 10:52:53;;;;;;;1.73;1.53;;;25.50;49.10;;;;;;6252747;28;20227;-59
2021/05/27 10:55:56;;;;;;;3.27;2.73;;;25.50;49.30;;;;;;6253200;28;20246;-59
2021/05/27 10:59:08;;;;;;;2.00;1.80;;;25.50;49.40;;;;;;6253574;28;20235;-60
2021/05/27 11:02:23;;;;;;;2.23;1.70;;;25.60;49.40;;;;;;6253045;28;20243;-58
2021/05/27 11:05:26;;;;;;;3.03;1.97;;;25.50;50.40;;;;;;6253306;28;20236;-58
2021/05/27 11:08:30;;;;;;;2.77;1.80;;;24.90;51.20;;;;;;6252913;28;20701;-58
2021/05/27 11:11:37;;;;;;;2.10;1.70;;;25.00;51.50;;;;;;6252961;28;20313;-61
2021/05/27 11:14:42;;;;;;;5.27;1.70;;;25.20;50.90;;;;;;6252840;28;20535;-61
2021/05/27 11:18:08;;;;;;;1.90;1.70;;;24.50;52.60;;;;;;6251071;28;20234;-61
2021/05/27 11:21:36;;;;;;;2.33;1.60;;;23.80;53.80;;;;;;6241617;28;20248;-61
2021/05/27 11:24:42;;;;;;;2.20;1.70;;;24.10;53.80;;;;;;6250567;28;20243;-61
2021/05/27 11:27:48;;;;;;;2.20;2.00;;;24.70;53.40;;;;;;6250292;28;20578;-60
2021/05/27 11:30:56;;;;;;;2.57;1.87;;;24.90;52.60;;;;;;6251473;28;20242;-61
2021/05/27 11:34:05;;;;;;;3.73;2.13;;;24.90;53.10;;;;;;6252114;28;20224;-61
2021/05/27 11:37:07;;;;;;;2.20;2.00;;;24.50;52.90;;;;;;6252959;28;20184;-61
2021/05/27 11:40:14;;;;;;;1.80;1.50;;;24.20;53.80;;;;;;6252117;28;20215;-61
2021/05/27 11:43:18;;;;;;;2.03;1.80;;;24.20;53.60;;;;;;6237625;28;20223;-61
2021/05/27 11:46:23;;;;;;;1.80;1.40;;;24.40;53.10;;;;;;6276704;28;20254;-61
2021/05/27 11:49:26;;;;;;;2.60;1.77;;;24.60;53.20;;;;;;6277057;28;20230;-61
2021/05/27 11:52:29;;;;;;;2.20;1.80;;;24.90;53.00;;;;;;6277162;28;20231;-60
2021/05/27 11:55:34;;;;;;;1.90;1.70;;;24.80;53.00;;;;;;6277224;28;20249;-60
2021/05/27 11:58:38;;;;;;;2.30;2.10;;;24.10;54.00;;;;;;6276482;28;20551;-61
2021/05/27 12:01:43;;;;;;;2.33;1.83;;;23.90;54.00;;;;;;6277317;28;20223;-61
2021/05/27 12:04:45;;;;;;;2.17;1.40;;;23.90;55.70;;;;;;6275692;28;20236;-62
2021/05/27 12:07:59;;;;;;;2.60;1.90;;;23.80;54.80;;;;;;6277023;28;20220;-60
2021/05/27 12:11:03;;;;;;;2.47;2.30;;;23.80;54.80;;;;;;6267470;28;20309;-67
2021/05/27 12:14:08;;;;;;;3.40;1.80;;;23.60;55.10;;;;;;6272679;28;20224;-63
2021/05/27 12:17:25;;;;;;;5.43;2.17;;;23.40;56.10;;;;;;6265230;28;20558;-63
2021/05/27 12:20:30;;;;;;;5.40;2.00;;;23.40;56.10;;;;;;6251358;28;20224;-62
2021/05/27 12:23:33;;;;;;;1.87;1.77;;;23.40;56.40;;;;;;6250811;28;20282;-62
2021/05/27 12:26:47;;;;;;;2.63;1.80;;;23.60;56.40;;;;;;6251225;28;20232;-62
2021/05/27 12:29:51;;;;;;;2.30;1.83;;;23.60;55.20;;;;;;6250526;28;20693;-62
2021/05/27 12:32:55;;;;;;;3.67;2.03;;;23.60;55.70;;;;;;6251162;28;20224;-62
2021/05/27 12:36:04;;;;;;;2.83;1.73;;;23.80;56.30;;;;;;6229623;28;20244;-62
2021/05/27 12:39:07;;;;;;;3.10;1.53;;;23.90;56.20;;;;;;6226567;28;20233;-62
2021/05/27 12:42:11;;;;;;;3.03;1.80;;;24.00;55.40;;;;;;6237040;28;20224;-62
2021/05/27 12:45:32;;;;;;;3.23;2.03;;;24.00;55.40;;;;;;6250111;28;20224;-62
2021/05/27 12:48:47;;;;;;;2.60;2.00;;;23.60;56.30;;;;;;6249855;28;20719;-62
2021/05/27 12:51:50;;;;;;;1.80;1.70;;;23.70;56.60;;;;;;6229047;28;20225;-62
2021/05/27 12:55:00;;;;;;;3.60;2.10;;;23.10;56.10;;;;;;6225062;28;20236;-62
2021/05/27 12:58:06;;;;;;;6.50;2.40;;;22.90;57.50;;;;;;6225678;28;20260;-62
2021/05/27 13:01:09;;;;;;;1.73;1.60;;;22.90;57.60;;;;;;6225728;28;20204;-63
2021/05/27 13:04:25;;;;;;;3.63;1.80;;;22.90;57.50;;;;;;6225477;28;20240;-62
2021/05/27 13:07:36;;;;;;;2.50;2.03;;;22.50;58.30;;;;;;6239641;28;20290;-62
2021/05/27 13:10:40;;;;;;;1.77;1.67;;;22.40;59.00;;;;;;6240273;28;20224;-62
2021/05/27 13:13:44;;;;;;;3.07;1.50;;;22.00;59.80;;;;;;6249541;28;20235;-62
2021/05/27 13:16:48;;;;;;;2.67;1.83;;;21.90;60.30;;;;;;6250147;28;20224;-62
2021/05/27 13:19:57;;;;;;;2.30;2.10;;;21.90;60.00;;;;;;6249507;28;20303;-62
2021/05/27 13:22:59;;;;;;;2.07;1.87;;;21.90;60.40;;;;;;6249894;28;20574;-64
2021/05/27 13:26:10;;;;;;;2.00;1.80;;;21.80;61.50;;;;;;6245352;28;20236;-63
2021/05/27 13:29:14;;;;;;;5.93;2.47;;;21.70;61.40;;;;;;6249900;28;20239;-61
2021/05/27 13:32:19;;;;;;;2.73;1.83;;;21.80;60.80;;;;;;6249770;28;20232;-61
2021/05/27 13:35:26;;;;;;;2.10;1.90;;;21.80;61.30;;;;;;6249341;28;20251;-61
2021/05/27 13:38:30;;;;;;;2.67;2.47;;;21.70;61.10;;;;;;6249359;28;20686;-61
2021/05/27 13:41:33;;;;;;;4.13;3.10;;;21.70;61.40;;;;;;6248767;28;20220;-61
2021/05/27 13:44:36;;;;;;;2.60;1.83;;;21.60;62.20;;;;;;6249242;28;20227;-60
2021/05/27 13:47:39;;;;;;;2.97;2.20;;;21.40;63.00;;;;;;6248664;28;20224;-61
2021/05/27 13:50:45;;;;;;;3.03;1.90;;;21.10;63.80;;;;;;6224783;28;20278;-61
2021/05/27 13:53:48;;;;;;;2.80;2.27;;;20.90;64.30;;;;;;6224484;28;20690;-61
2021/05/27 13:56:51;;;;;;;3.10;1.70;;;20.70;65.20;;;;;;6224674;28;20550;-60
2021/05/27 13:59:54;;;;;;;5.40;1.60;;;20.80;65.10;;;;;;6224574;28;20233;-60
2021/05/27 14:02:57;;;;;;;2.83;1.80;;;20.60;65.40;;;;;;6224678;28;20262;-60
2021/05/27 14:06:01;;;;;;;4.27;2.20;;;20.50;66.10;;;;;;6221097;28;20255;-60
2021/05/27 14:09:07;;;;;;;4.50;2.20;;;20.50;66.40;;;;;;6224165;28;20239;-60
2021/05/27 14:12:09;;;;;;;3.53;2.20;;;20.60;66.80;;;;;;6246712;28;20228;-60
2021/05/27 14:15:14;;;;;;;2.50;2.07;;;20.20;68.10;;;;;;6247033;28;20243;-60
2021/05/27 14:18:17;;;;;;;3.10;1.77;;;20.20;69.20;;;;;;6247172;28;20224;-60
2021/05/27 14:21:20;;;;;;;3.93;2.10;;;20.30;69.30;;;;;;6248427;28;20224;-61
2021/05/27 14:24:23;;;;;;;4.70;2.30;;;20.30;69.30;;;;;;6249264;28;20695;-61
2021/05/27 14:27:26;;;;;;;2.80;1.83;;;20.40;69.80;;;;;;6249044;28;20228;-61
2021/05/27 14:30:31;;;;;;;2.73;1.63;;;20.40;69.70;;;;;;6249046;28;20224;-61
2021/05/27 14:33:34;;;;;;;6.00;2.00;;;20.30;70.40;;;;;;6242267;28;20709;-60
2021/05/27 14:36:37;;;;;;;5.70;1.80;;;20.30;71.00;;;;;;6248272;28;20258;-61
2021/05/27 14:39:40;;;;;;;2.60;1.90;;;20.20;70.50;;;;;;6248245;28;20247;-61
2021/05/27 14:42:43;;;;;;;1.70;1.50;;;20.00;71.40;;;;;;6233118;28;20228;-61
2021/05/27 14:45:47;;;;;;;5.60;2.10;;;20.00;72.30;;;;;;6223559;28;20228;-61
2021/05/27 14:48:50;;;;;;;4.03;1.60;;;20.00;74.10;;;;;;6224015;28;20235;-61
2021/05/27 14:51:53;;;;;;;3.27;2.03;;;20.00;75.90;;;;;;6223790;28;20225;-61
2021/05/27 14:54:55;;;;;;;3.53;2.30;;;20.00;78.80;;;;;;6223529;28;20572;-61
2021/05/27 14:57:58;;;;;;;3.97;1.80;;;19.80;80.80;;;;;;6223695;28;20248;-60
2021/05/27 15:01:02;;;;;;;4.60;1.73;;;19.30;80.90;;;;;;6222697;28;20213;-62
2021/05/27 15:04:05;;;;;;;4.07;1.50;;;18.20;88.00;;;;;;6222850;28;20467;-61
2021/05/27 15:07:08;;;;;;;2.97;1.43;;;16.90;94.00;;;;;;6230748;28;20469;-61
2021/05/27 15:10:11;;;;;;;2.90;1.90;;;15.80;99.90;;;;;;6247331;28;20446;-60
2021/05/27 15:13:14;;;;;;;2.43;1.30;;;14.90;99.90;;;;;;6248043;28;20779;-60
2021/05/27 15:16:17;;;;;;;1.00;0.87;;;14.20;99.90;;;;;;6248929;28;20461;-60
2021/05/27 15:19:20;;;;;;;1.20;1.10;;;13.90;99.90;;;;;;6252300;28;20462;-60
2021/05/27 15:22:23;;;;;;;0.87;0.83;;;13.70;99.90;;;;;;6252778;28;20455;-60
2021/05/27 15:25:27;;;;;;;1.00;1.00;;;13.50;99.90;;;;;;6252289;28;20806;-60
2021/05/27 15:28:30;;;;;;;6.90;0.93;;;13.40;99.90;;;;;;6252730;28;20471;-60
2021/05/27 15:31:33;;;;;;;2.87;0.90;;;13.30;99.90;;;;;;6252534;28;20458;-60
2021/05/27 15:34:37;;;;;;;1.93;0.93;;;13.30;99.90;;;;;;6243656;28;20511;-60
2021/05/27 15:37:45;;;;;;;1.07;0.50;;;13.40;99.90;;;;;;6252504;28;20792;-60
2021/05/27 15:40:50;;;;;;;4.77;1.00;;;13.40;99.90;;;;;;6252288;28;20466;-60
2021/05/27 15:43:53;;;;;;;1.87;1.10;;;13.40;99.90;;;;;;6252291;28;20471;-60
2021/05/27 15:46:56;;;;;;;1.70;0.70;;;13.50;99.90;;;;;;6251121;28;20482;-61
2021/05/27 15:49:59;;;;;;;2.13;1.00;;;13.60;99.90;;;;;;6251772;28;20493;-61
2021/05/27 15:53:03;;;;;;;2.20;0.70;;;13.60;99.90;;;;;;6251951;28;20553;-61
2021/05/27 15:56:06;;;;;;;2.97;0.67;;;13.70;99.90;;;;;;6251971;28;20487;-60
2021/05/27 15:59:09;;;;;;;2.70;0.67;;;13.70;99.90;;;;;;6251484;28;20475;-61
2021/05/27 16:02:12;;;;;;;0.93;0.83;;;13.70;99.90;;;;;;6252215;28;20467;-61
2021/05/27 16:05:16;;;;;;;0.70;0.60;;;13.80;99.90;;;;;;6251428;28;20485;-61
2021/05/27 16:08:19;;;;;;;0.70;0.60;;;13.90;99.90;;;;;;6233435;28;20468;-59
2021/05/27 16:11:22;;;;;;;2.60;0.70;;;14.10;99.90;;;;;;6247853;28;20853;-60